Time;durP1;ratioP1;P1;durP2;ratioP2;P2;SDS_P1;SDS_P2;PMS_P1;PMS_P2;Temp;Humidity;BMP_temperature;BMP_pressure;BME280_temperature;BME280_humidity;BME280_pressure;Samples;Min_cycle;Max_cycle;Signal;HPM_P1;HPM_P2
2022/07/14 00:02:09;;;;;;;8.37;7.67;;;;;;;17.23;50.57;93327.72;5077045;28;20218;-72
2022/07/14 00:04:35;;;;;;;7.77;7.17;;;;;;;17.15;50.60;93337.13;5060708;28;20260;-72
2022/07/14 00:07:01;;;;;;;7.07;6.57;;;;;;;17.29;50.32;93329.91;5078174;28;20278;-72
2022/07/14 00:09:27;;;;;;;8.17;7.37;;;;;;;17.10;50.56;93305.59;5080758;28;20194;-72
2022/07/14 00:11:52;;;;;;;7.90;7.30;;;;;;;17.11;51.46;93314.28;5081642;28;20221;-73
2022/07/14 00:14:17;;;;;;;7.97;7.20;;;;;;;17.06;50.34;93311.75;5062140;28;20216;-73
2022/07/14 00:16:43;;;;;;;7.47;7.17;;;;;;;17.15;50.72;93323.94;5081059;28;20771;-72
2022/07/14 00:19:08;;;;;;;7.27;6.90;;;;;;;17.10;51.58;93326.72;5081437;28;20177;-72
2022/07/14 00:21:34;;;;;;;7.93;7.47;;;;;;;17.09;50.80;93317.22;5066514;28;20288;-72
2022/07/14 00:23:59;;;;;;;7.00;6.60;;;;;;;17.02;50.56;93316.88;5085066;28;20238;-72
2022/07/14 00:26:25;;;;;;;8.33;7.57;;;;;;;17.18;51.08;93331.25;5081202;28;20930;-72
2022/07/14 00:28:50;;;;;;;7.57;6.80;;;;;;;17.13;51.48;93334.03;5077789;28;20224;-72
2022/07/14 00:31:16;;;;;;;8.07;7.57;;;;;;;16.87;51.19;93309.28;5082179;28;20213;-72
2022/07/14 00:33:41;;;;;;;7.13;6.73;;;;;;;17.09;51.00;93327.78;5082736;28;20275;-72
2022/07/14 00:36:08;;;;;;;6.73;6.43;;;;;;;17.07;52.21;93331.81;5084503;28;20324;-70
2022/07/14 00:38:33;;;;;;;7.30;7.00;;;;;;;17.01;50.50;93307.38;5081615;28;20193;-72
2022/07/14 00:40:59;;;;;;;7.47;6.80;;;;;;;17.09;51.20;93319.09;5083477;28;20225;-72
2022/07/14 00:43:24;;;;;;;7.20;6.80;;;;;;;17.13;49.77;93318.19;5082131;28;20189;-72
2022/07/14 00:45:50;;;;;;;7.57;6.97;;;;;;;17.15;50.11;93336.38;5082355;28;20283;-72
2022/07/14 00:48:19;;;;;;;6.97;6.57;;;;;;;17.07;52.14;93326.53;5081886;28;20186;-72
2022/07/14 00:50:45;;;;;;;7.23;6.93;;;;;;;17.05;50.80;93320.75;5081067;28;20300;-73
2022/07/14 00:53:12;;;;;;;8.03;7.73;;;;;;;17.03;50.70;93323.69;5081624;28;20213;-73
2022/07/14 00:55:40;;;;;;;8.40;8.00;;;;;;;17.08;50.62;93323.59;5083194;28;20207;-72
2022/07/14 00:58:05;;;;;;;7.23;6.90;;;;;;;16.92;50.92;93306.53;5064874;28;20223;-72
2022/07/14 01:00:34;;;;;;;7.50;7.13;;;;;;;16.89;49.90;93279.97;5078421;28;20185;-72
2022/07/14 01:02:59;;;;;;;7.10;6.60;;;;;;;17.03;50.75;93315.78;5082225;28;20189;-72
2022/07/14 01:05:25;;;;;;;7.30;6.90;;;;;;;16.88;50.42;93294.25;5080089;28;20189;-75
2022/07/14 01:07:50;;;;;;;7.67;6.87;;;;;;;17.08;50.36;93315.66;5082022;28;20192;-72
2022/07/14 01:10:16;;;;;;;7.33;7.03;;;;;;;17.12;50.15;93321.91;5080326;28;20239;-73
2022/07/14 01:12:45;;;;;;;6.83;6.53;;;;;;;16.79;50.56;93278.41;5080857;28;20234;-72
2022/07/14 01:15:11;;;;;;;7.80;7.40;;;;;;;16.85;50.66;93297.50;5080016;28;20194;-73
2022/07/14 01:17:37;;;;;;;7.80;7.40;;;;;;;16.74;52.75;93277.72;5079392;28;20217;-72
2022/07/14 01:20:03;;;;;;;8.70;8.20;;;;;;;16.85;52.49;93300.94;5080930;28;20204;-73
2022/07/14 01:22:29;;;;;;;7.13;6.83;;;;;;;16.79;54.48;93311.88;5080053;28;20217;-72
2022/07/14 01:24:54;;;;;;;7.23;6.83;;;;;;;16.72;55.36;93307.03;5083244;28;20208;-72
2022/07/14 01:27:19;;;;;;;6.97;6.77;;;;;;;16.66;55.41;93313.50;5064526;28;20225;-72
2022/07/14 01:29:45;;;;;;;7.30;7.00;;;;;;;16.67;55.68;93309.00;5084041;28;20185;-72
2022/07/14 01:32:11;;;;;;;8.97;8.20;;;;;;;16.55;56.85;93301.63;5080392;28;20221;-72
2022/07/14 01:34:37;;;;;;;8.37;7.73;;;;;;;16.47;55.56;93298.91;5078800;28;20201;-73
2022/07/14 01:37:02;;;;;;;8.83;7.83;;;;;;;16.48;55.49;93301.25;5079970;28;20225;-72
2022/07/14 01:39:27;;;;;;;7.47;7.07;;;;;;;16.43;54.04;93309.25;5065120;28;20196;-73
2022/07/14 01:41:53;;;;;;;7.90;7.50;;;;;;;16.55;54.65;93296.34;5081760;28;20216;-74
2022/07/14 01:44:18;;;;;;;7.17;6.80;;;;;;;16.33;55.30;93277.81;5084573;28;20204;-73
2022/07/14 01:46:44;;;;;;;7.60;7.30;;;;;;;16.49;55.20;93289.63;5081256;28;20244;-71
2022/07/14 01:49:09;;;;;;;7.70;7.27;;;;;;;16.30;55.44;93261.81;5081131;28;20242;-72
2022/07/14 01:51:35;;;;;;;8.23;7.83;;;;;;;16.43;56.63;93293.41;5080821;28;20236;-72
2022/07/14 01:54:01;;;;;;;8.13;7.73;;;;;;;16.31;56.31;93285.22;5079126;28;20209;-72
2022/07/14 01:56:26;;;;;;;8.13;7.67;;;;;;;16.08;57.23;93263.34;5080850;28;20231;-72
2022/07/14 01:58:51;;;;;;;7.77;7.20;;;;;;;16.08;58.32;93250.16;5081201;28;20187;-72
2022/07/14 02:04:02;;;;;;;7.67;7.30;;;;;;;16.02;59.04;93288.22;5080926;28;20195;-72
2022/07/14 02:06:29;;;;;;;8.47;8.07;;;;;;;15.89;60.22;93293.53;5079352;28;20208;-72
2022/07/14 02:08:55;;;;;;;8.40;7.77;;;;;;;15.82;60.60;93295.75;5066327;28;20189;-72
2022/07/14 02:14:05;;;;;;;7.97;7.53;;;;;;;15.76;61.23;93299.56;5079918;28;20293;-72
2022/07/14 02:16:31;;;;;;;7.83;7.53;;;;;;;15.63;61.07;93287.16;5081020;28;20743;-72
2022/07/14 02:18:56;;;;;;;7.97;7.57;;;;;;;15.63;61.08;93289.78;5080273;28;20899;-72
2022/07/14 02:21:23;;;;;;;8.07;7.67;;;;;;;15.64;60.67;93272.94;5078252;28;20244;-73
2022/07/14 02:23:48;;;;;;;8.23;7.77;;;;;;;15.32;60.84;93226.41;5083230;28;20208;-72
2022/07/14 02:26:14;;;;;;;8.80;8.20;;;;;;;15.66;61.91;93294.47;5079747;28;20221;-72
2022/07/14 02:28:40;;;;;;;7.67;7.03;;;;;;;15.68;61.86;93293.13;5079156;28;20193;-72
2022/07/14 02:31:09;;;;;;;8.63;8.13;;;;;;;15.66;62.38;93294.47;5061517;28;20241;-73
2022/07/14 02:33:35;;;;;;;8.13;7.63;;;;;;;15.62;62.89;93293.50;5083386;28;20246;-74
2022/07/14 02:36:00;;;;;;;7.67;7.37;;;;;;;15.60;62.85;93301.69;5082479;28;20247;-73
2022/07/14 02:38:26;;;;;;;7.53;7.23;;;;;;;15.45;64.08;93298.56;5080077;28;20212;-72
2022/07/14 02:40:51;;;;;;;8.70;8.10;;;;;;;15.53;64.10;93295.25;5062251;28;20277;-72
2022/07/14 02:43:17;;;;;;;7.43;7.13;;;;;;;15.46;64.05;93292.22;5082189;28;20189;-72
2022/07/14 02:45:42;;;;;;;7.90;7.60;;;;;;;15.34;64.48;93302.41;5078708;28;20211;-72
2022/07/14 02:48:08;;;;;;;7.67;7.37;;;;;;;15.41;64.58;93308.13;5076977;28;20184;-72
2022/07/14 02:50:36;;;;;;;7.13;6.83;;;;;;;15.18;63.96;93295.84;5080256;28;20161;-72
2022/07/14 02:53:02;;;;;;;8.17;7.63;;;;;;;15.25;63.85;93309.41;5079669;28;20276;-73
2022/07/14 02:55:27;;;;;;;7.03;6.73;;;;;;;15.25;64.67;93293.63;5079457;28;20186;-72
2022/07/14 02:57:53;;;;;;;8.43;8.03;;;;;;;15.32;64.05;93307.97;5077429;28;20183;-73
2022/07/14 03:00:18;;;;;;;6.77;6.33;;;;;;;15.30;63.10;93302.22;5080265;28;20248;-73
2022/07/14 03:02:43;;;;;;;7.73;7.33;;;;;;;15.39;64.08;93307.63;5079566;28;20221;-72
2022/07/14 03:05:09;;;;;;;7.77;7.37;;;;;;;15.50;63.92;93309.00;5080996;28;20196;-72
2022/07/14 03:07:34;;;;;;;8.70;8.30;;;;;;;15.39;64.27;93297.09;5080582;28;20221;-73
2022/07/14 03:10:00;;;;;;;8.57;7.70;;;;;;;15.49;65.01;93315.31;5077991;28;20956;-73
2022/07/14 03:12:25;;;;;;;8.50;7.87;;;;;;;15.54;64.12;93281.81;5077539;28;20234;-73
2022/07/14 03:14:51;;;;;;;7.60;7.13;;;;;;;16.25;61.93;93289.06;5078223;28;20189;-72
2022/07/14 03:17:17;;;;;;;9.17;8.60;;;;;;;17.21;59.46;93320.09;5078501;28;20210;-73
2022/07/14 03:19:43;;;;;;;7.87;7.57;;;;;;;18.31;56.15;93315.59;5079228;28;20211;-73
2022/07/14 03:22:08;;;;;;;8.63;8.03;;;;;;;19.09;53.36;93310.06;5076900;28;20197;-72
2022/07/14 03:24:34;;;;;;;7.33;7.03;;;;;;;19.61;52.31;93332.72;5081893;28;20210;-73
2022/07/14 03:27:00;;;;;;;8.13;7.67;;;;;;;19.20;51.91;93332.50;5077729;28;20272;-73
2022/07/14 03:29:27;;;;;;;7.10;6.80;;;;;;;18.42;55.50;93332.75;5076276;28;20176;-73
2022/07/14 03:31:53;;;;;;;7.73;7.43;;;;;;;17.92;56.88;93324.34;5077981;28;20260;-73
2022/07/14 03:34:18;;;;;;;8.20;7.73;;;;;;;18.23;56.62;93335.66;5078325;28;20213;-72
2022/07/14 03:36:44;;;;;;;7.43;6.93;;;;;;;18.00;57.37;93331.53;5077785;28;20249;-72
2022/07/14 03:39:09;;;;;;;7.50;7.20;;;;;;;19.12;54.74;93342.00;5079807;28;20190;-73
2022/07/14 03:41:35;;;;;;;7.77;7.37;;;;;;;19.27;54.34;93343.38;5076253;28;20293;-73
2022/07/14 03:44:00;;;;;;;8.20;7.60;;;;;;;18.54;56.63;93346.16;5079783;28;20197;-73
2022/07/14 03:46:26;;;;;;;7.63;7.33;;;;;;;19.23;54.77;93353.03;5076759;28;20225;-74
2022/07/14 03:48:51;;;;;;;7.50;7.10;;;;;;;20.17;51.78;93345.66;5077090;28;20248;-74
2022/07/14 03:51:17;;;;;;;7.23;6.77;;;;;;;20.34;50.95;93334.97;5081386;28;20233;-73
2022/07/14 03:53:42;;;;;;;8.47;7.97;;;;;;;21.78;46.56;93355.44;5061078;28;20216;-73
2022/07/14 03:56:08;;;;;;;7.27;6.87;;;;;;;23.19;42.62;93347.31;5076584;28;20231;-73
2022/07/14 04:03:51;;;;;;;8.48;7.97;;;;;;;21.72;47.64;93364.69;5139597;27;20321;-74
2022/07/14 04:06:16;;;;;;;8.70;8.23;;;;;;;22.57;45.66;93360.31;5120133;28;20224;-72
2022/07/14 04:08:44;;;;;;;8.63;8.02;;;;;;;22.30;45.33;93358.28;5096542;28;20192;-72
2022/07/14 04:11:10;;;;;;;8.02;7.53;;;;;;;20.58;49.14;93337.78;5093675;28;20234;-73
2022/07/14 04:13:36;;;;;;;7.90;7.35;;;;;;;20.34;50.74;93336.84;5091786;28;20233;-73
2022/07/14 04:16:01;;;;;;;8.03;7.53;;;;;;;19.88;51.83;93324.41;5096790;28;20219;-70
2022/07/14 04:18:26;;;;;;;7.28;6.97;;;;;;;19.47;51.50;93332.13;5094105;28;20195;-70
2022/07/14 04:20:54;;;;;;;8.70;8.30;;;;;;;19.01;53.86;93347.91;5094972;28;20239;-69
2022/07/14 04:23:19;;;;;;;9.33;8.60;;;;;;;18.61;55.17;93346.47;5096277;28;20608;-72
2022/07/14 04:25:45;;;;;;;11.17;8.77;;;;;;;17.69;60.86;93354.56;5093831;28;20306;-72
2022/07/14 04:28:11;;;;;;;10.30;8.40;;;;;;;17.39;63.11;93358.72;5093416;28;20287;-72
2022/07/14 04:30:36;;;;;;;10.07;9.37;;;;;;;17.35;62.23;93352.47;5077835;28;20189;-72
2022/07/14 04:33:02;;;;;;;11.03;10.13;;;;;;;17.25;61.86;93354.56;5078183;28;20258;-71
2022/07/14 04:35:27;;;;;;;10.00;9.10;;;;;;;17.36;61.34;93347.97;5095278;28;20182;-72
2022/07/14 04:37:53;;;;;;;10.87;10.10;;;;;;;17.36;60.37;93361.97;5095839;28;20196;-71
2022/07/14 04:40:18;;;;;;;9.70;8.43;;;;;;;17.29;61.75;93372.16;5095428;28;20251;-72
2022/07/14 04:42:43;;;;;;;10.97;10.07;;;;;;;17.29;61.75;93374.78;5094238;28;20249;-72
2022/07/14 04:45:09;;;;;;;11.00;10.07;;;;;;;17.40;61.95;93376.09;5094320;28;20200;-71
2022/07/14 04:47:34;;;;;;;10.47;9.63;;;;;;;17.53;60.17;93371.88;5093619;28;20247;-72
2022/07/14 04:52:48;;;;;;;12.47;11.57;;;;;;;17.19;62.31;93369.75;5093552;28;20232;-72
2022/07/14 04:55:14;;;;;;;9.73;9.10;;;;;;;17.52;61.93;93375.59;5091078;28;20188;-72
2022/07/14 04:57:40;;;;;;;11.30;9.33;;;;;;;17.69;62.99;93377.53;5090786;28;20225;-80
2022/07/14 05:00:07;;;;;;;10.27;9.47;;;;;;;17.82;61.49;93376.69;5094475;28;20188;-71
2022/07/14 05:02:32;;;;;;;11.37;10.57;;;;;;;17.92;61.03;93377.19;5090661;28;20240;-70
2022/07/14 05:04:58;;;;;;;12.70;9.73;;;;;;;17.85;60.35;93360.22;5090298;28;20223;-70
2022/07/14 05:07:24;;;;;;;9.73;9.13;;;;;;;18.01;61.14;93385.94;5093332;28;20222;-71
2022/07/14 05:09:49;;;;;;;10.07;9.47;;;;;;;18.04;61.33;93379.28;5093487;28;20181;-71
2022/07/14 05:12:16;;;;;;;10.13;9.20;;;;;;;17.94;60.99;93374.25;5089386;28;20641;-73
2022/07/14 05:14:41;;;;;;;10.93;10.17;;;;;;;18.17;61.15;93386.31;5081538;28;20288;-72
2022/07/14 05:17:07;;;;;;;10.40;9.77;;;;;;;18.47;58.47;93373.06;5078615;28;20731;-73
2022/07/14 05:19:32;;;;;;;9.90;9.33;;;;;;;18.52;58.58;93386.13;5077098;28;20209;-71
2022/07/14 05:21:58;;;;;;;10.13;9.43;;;;;;;18.83;57.07;93388.69;5065508;28;20227;-73
2022/07/14 05:24:24;;;;;;;10.97;9.93;;;;;;;18.76;57.16;93375.91;5039962;28;20226;-72
2022/07/14 05:26:49;;;;;;;9.50;9.00;;;;;;;18.78;57.17;93391.47;5047870;28;20242;-73
2022/07/14 05:29:14;;;;;;;9.37;8.90;;;;;;;18.96;55.30;93393.03;5056960;28;20217;-72
2022/07/14 05:31:40;;;;;;;9.83;9.30;;;;;;;19.04;55.28;93387.78;5054800;28;20242;-72
2022/07/14 05:34:06;;;;;;;10.13;9.53;;;;;;;19.17;55.81;93380.75;5060431;28;20180;-72
2022/07/14 05:36:31;;;;;;;9.80;9.30;;;;;;;20.10;52.30;93390.44;5058162;28;20261;-71
2022/07/14 05:38:57;;;;;;;9.80;8.87;;;;;;;20.93;49.88;93380.03;5060881;28;20192;-71
2022/07/14 05:41:22;;;;;;;10.63;9.70;;;;;;;23.80;42.94;93393.97;5060603;28;20224;-72
2022/07/14 05:43:48;;;;;;;9.02;8.57;;;;;;;28.65;33.66;93411.66;5057284;28;20189;-72
2022/07/14 05:46:14;;;;;;;8.82;8.15;;;;;;;31.45;28.23;93424.66;5059973;28;20255;-73
2022/07/14 05:48:41;;;;;;;8.90;8.23;;;;;;;31.81;26.99;93441.53;5061136;28;20245;-73
2022/07/14 05:51:09;;;;;;;8.75;8.05;;;;;;;32.01;27.02;93419.13;5060479;28;20628;-73
2022/07/14 05:53:35;;;;;;;8.35;7.80;;;;;;;32.63;26.05;93419.19;5059392;28;20233;-73
2022/07/14 05:56:02;;;;;;;8.55;8.00;;;;;;;33.14;25.18;93421.16;5056274;28;20289;-72
2022/07/14 05:58:28;;;;;;;8.20;7.32;;;;;;;35.80;21.80;93429.66;5057288;28;21052;-73
2022/07/14 06:00:54;;;;;;;7.95;7.45;;;;;;;36.73;20.80;93444.50;5059193;28;20229;-74
2022/07/14 06:03:19;;;;;;;7.22;6.63;;;;;;;37.65;20.03;93434.94;5058688;28;20230;-73
2022/07/14 06:05:45;;;;;;;6.63;6.07;;;;;;;35.41;21.22;93417.53;5060514;28;20229;-75
2022/07/14 06:08:11;;;;;;;7.38;6.68;;;;;;;36.80;20.46;93428.00;5059185;28;20198;-69
2022/07/14 06:10:37;;;;;;;8.18;7.15;;;;;;;39.01;18.33;93429.56;5058234;28;20189;-71
2022/07/14 06:13:03;;;;;;;8.05;6.57;;;;;;;36.99;20.04;93413.56;5057740;28;20180;-71
2022/07/14 06:15:29;;;;;;;7.35;6.88;;;;;;;38.60;18.56;93429.63;5058525;28;20181;-71
2022/07/14 06:17:54;;;;;;;7.18;6.57;;;;;;;35.65;21.82;93423.69;5060039;28;20196;-70
2022/07/14 06:20:20;;;;;;;6.10;5.80;;;;;;;38.30;18.76;93428.13;5060312;28;20197;-71
2022/07/14 06:22:45;;;;;;;6.45;5.85;;;;;;;38.56;18.15;93405.16;5058804;28;20236;-69
2022/07/14 06:25:10;;;;;;;6.43;5.95;;;;;;;39.07;17.62;93431.28;5059515;28;20244;-71
2022/07/14 06:27:36;;;;;;;7.00;6.40;;;;;;;36.54;20.79;93423.53;5059470;28;20218;-70
2022/07/14 06:30:06;;;;;;;6.63;6.15;;;;;;;36.52;20.99;93423.94;5060046;28;20209;-70
2022/07/14 06:32:32;;;;;;;6.57;5.97;;;;;;;38.44;18.46;93412.09;5060614;28;20285;-69
2022/07/14 06:34:57;;;;;;;6.90;6.30;;;;;;;36.34;20.68;93412.69;5060002;28;20182;-71
2022/07/14 06:37:22;;;;;;;6.93;6.40;;;;;;;37.85;19.29;93405.59;5059295;28;20220;-71
2022/07/14 06:39:48;;;;;;;6.38;5.93;;;;;;;38.33;18.75;93389.81;5059609;28;20190;-73
2022/07/14 06:42:13;;;;;;;6.63;5.90;;;;;;;35.86;21.14;93379.84;5060723;28;20583;-75
2022/07/14 06:44:39;;;;;;;6.88;5.78;;;;;;;38.22;18.68;93419.38;5059764;28;20194;-71
2022/07/14 06:47:05;;;;;;;6.28;5.82;;;;;;;37.86;19.30;93407.88;5060230;28;20305;-73
2022/07/14 06:49:30;;;;;;;12.20;6.55;;;;;;;34.17;23.20;93390.66;5058239;28;20205;-72
2022/07/14 06:51:56;;;;;;;7.18;6.38;;;;;;;32.06;25.08;93383.59;5054872;28;20256;-71
2022/07/14 06:54:21;;;;;;;7.28;6.72;;;;;;;28.49;31.29;93392.31;5062093;28;20187;-71
2022/07/14 06:56:47;;;;;;;8.13;7.47;;;;;;;26.05;35.80;93367.84;5058839;28;20221;-73
2022/07/14 06:59:12;;;;;;;7.82;7.35;;;;;;;24.99;37.73;93350.78;5057405;28;20188;-73
2022/07/14 07:01:37;;;;;;;8.60;7.85;;;;;;;24.94;37.88;93372.44;5057248;28;20229;-71
2022/07/14 07:04:03;;;;;;;8.05;7.35;;;;;;;24.09;39.95;93366.97;5055602;28;20201;-72
2022/07/14 07:06:44;;;;;;;9.80;9.05;;;;;;;23.98;40.59;93351.78;5056626;28;20214;-72
2022/07/14 07:09:14;;;;;;;9.85;8.80;;;;;;;23.43;41.57;93369.38;5061334;28;20207;-70
2022/07/14 07:11:39;;;;;;;9.02;8.13;;;;;;;23.81;41.39;93365.41;5056523;28;20241;-68
2022/07/14 07:14:05;;;;;;;11.30;8.93;;;;;;;22.80;42.85;93369.38;5057795;28;20199;-69
2022/07/14 07:16:31;;;;;;;8.88;8.07;;;;;;;23.15;41.36;93349.09;5058466;28;20266;-69
2022/07/14 07:18:56;;;;;;;9.57;8.20;;;;;;;23.29;42.06;93362.84;5059678;28;20192;-69
2022/07/14 07:21:22;;;;;;;8.25;7.55;;;;;;;22.67;44.11;93365.97;5054663;28;20295;-69
2022/07/14 07:23:48;;;;;;;8.13;7.63;;;;;;;23.31;42.48;93358.75;5055364;28;20233;-69
2022/07/14 07:26:14;;;;;;;7.70;7.10;;;;;;;23.12;41.17;93355.09;5057892;28;21124;-70
2022/07/14 07:28:40;;;;;;;8.63;7.72;;;;;;;22.79;40.95;93326.00;5058228;28;20183;-70
2022/07/14 07:31:05;;;;;;;8.43;7.82;;;;;;;23.20;38.46;93346.19;5058542;28;20258;-72
2022/07/14 07:33:32;;;;;;;9.43;8.73;;;;;;;23.07;41.46;93350.78;5061361;28;20193;-70
2022/07/14 07:35:58;;;;;;;9.85;8.80;;;;;;;23.09;40.27;93345.13;5055675;28;20233;-69
2022/07/14 07:38:24;;;;;;;8.25;7.65;;;;;;;23.06;39.14;93332.47;5059600;28;20187;-68
2022/07/14 07:40:49;;;;;;;7.65;7.05;;;;;;;23.08;40.27;93359.56;5053839;28;20246;-70
2022/07/14 07:43:15;;;;;;;8.25;7.78;;;;;;;22.98;39.40;93363.47;5057193;28;20217;-70
2022/07/14 07:45:41;;;;;;;8.13;7.68;;;;;;;22.78;38.69;93347.63;5057889;28;20222;-70
2022/07/14 07:48:06;;;;;;;8.30;7.72;;;;;;;23.33;38.36;93361.84;5055974;28;20248;-68
2022/07/14 07:50:32;;;;;;;8.80;8.00;;;;;;;23.46;40.86;93366.03;5057384;28;20192;-70
2022/07/14 07:52:58;;;;;;;7.93;7.55;;;;;;;23.36;39.06;93358.50;5058784;28;20191;-70
2022/07/14 07:55:23;;;;;;;7.75;7.32;;;;;;;22.90;38.74;93348.41;5059557;28;20183;-70
2022/07/14 07:57:49;;;;;;;7.75;7.25;;;;;;;23.02;39.19;93353.69;5057737;28;20234;-69
2022/07/14 08:00:14;;;;;;;7.25;6.70;;;;;;;23.21;39.11;93343.19;5057336;28;20181;-71
2022/07/14 08:02:52;;;;;;;8.32;7.78;;;;;;;23.19;39.27;93353.41;5057279;28;20300;-70
2022/07/14 08:05:19;;;;;;;7.97;7.38;;;;;;;23.36;37.79;93347.06;5054639;28;20184;-71
2022/07/14 08:07:45;;;;;;;7.78;7.38;;;;;;;23.44;37.56;93335.50;5055088;28;21068;-70
2022/07/14 08:10:10;;;;;;;9.57;8.88;;;;;;;23.30;38.53;93349.19;5058106;28;20185;-69
2022/07/14 08:12:37;;;;;;;8.60;8.10;;;;;;;23.70;38.51;93344.56;5059125;28;20231;-70
2022/07/14 08:15:03;;;;;;;8.38;7.13;;;;;;;23.71;38.76;93346.13;5078467;28;21680;-69
2022/07/14 08:17:29;;;;;;;11.98;8.43;;;;;;;23.82;38.23;93345.63;5077616;28;20228;-68
2022/07/14 08:19:55;;;;;;;8.48;7.78;;;;;;;23.48;37.72;93342.47;5075503;28;20200;-69
2022/07/14 08:22:27;;;;;;;8.40;7.93;;;;;;;22.96;39.53;93339.06;5074727;28;20228;-69
2022/07/14 08:24:54;;;;;;;8.48;7.93;;;;;;;23.07;39.44;93337.47;5074421;28;20201;-69
2022/07/14 08:27:20;;;;;;;8.20;7.68;;;;;;;23.39;39.43;93330.41;5076290;28;20216;-68
2022/07/14 08:29:45;;;;;;;8.18;7.15;;;;;;;23.49;38.99;93333.34;5058959;28;20196;-68
2022/07/14 08:32:11;;;;;;;8.05;7.60;;;;;;;23.47;38.58;93335.56;5079124;28;20228;-70
2022/07/14 08:34:37;;;;;;;7.70;7.10;;;;;;;24.03;37.17;93335.53;5077249;28;20192;-70
2022/07/14 08:37:03;;;;;;;10.50;7.18;;;;;;;24.18;33.37;93332.88;5079374;28;20239;-70
2022/07/14 08:39:28;;;;;;;6.40;6.10;;;;;;;23.94;34.14;93321.56;5077515;28;20230;-70
2022/07/14 08:41:54;;;;;;;7.75;7.25;;;;;;;23.96;36.12;93319.31;5075509;28;20231;-68
2022/07/14 08:44:22;;;;;;;8.07;7.47;;;;;;;23.96;35.18;93330.78;5060031;28;20275;-69
2022/07/14 08:46:47;;;;;;;6.68;6.38;;;;;;;24.10;36.58;93325.81;5076655;28;20234;-69
2022/07/14 08:49:16;;;;;;;7.03;6.60;;;;;;;23.88;34.73;93326.34;5079200;28;20597;-68
2022/07/14 08:51:43;;;;;;;7.07;6.68;;;;;;;23.58;35.06;93315.31;5079335;28;20218;-69
2022/07/14 08:54:09;;;;;;;7.40;7.00;;;;;;;23.34;34.26;93304.78;5082868;28;20192;-69
2022/07/14 08:56:36;;;;;;;7.22;6.93;;;;;;;23.81;34.74;93320.06;5079898;28;20231;-69
2022/07/14 08:59:01;;;;;;;6.93;6.63;;;;;;;24.06;33.41;93329.50;5078597;28;20219;-69
2022/07/14 09:01:27;;;;;;;7.30;6.78;;;;;;;24.20;30.82;93261.25;5078036;28;20234;-69
2022/07/14 09:03:53;;;;;;;7.47;6.88;;;;;;;23.54;32.98;93303.00;5081669;28;20223;-69
2022/07/14 09:06:46;;;;;;;7.05;6.75;;;;;;;23.69;33.86;93321.69;5077014;28;20317;-69
2022/07/14 09:09:17;;;;;;;8.35;7.78;;;;;;;24.13;33.59;93319.78;5068283;28;20201;-69
2022/07/14 09:12:06;;;;;;;9.20;8.57;;;;;;;24.28;34.29;93310.97;5079850;28;20256;-72
2022/07/14 09:17:25;;;;;;;7.03;6.53;;;;;;;24.45;33.47;93299.19;5078083;28;21056;-72
2022/07/14 09:20:10;;;;;;;8.00;7.50;;;;;;;24.01;32.80;93308.41;5080860;28;20212;-71
2022/07/14 09:22:38;;;;;;;7.57;7.05;;;;;;;24.54;33.60;93291.75;5082851;28;20228;-73
2022/07/14 09:25:08;;;;;;;7.68;7.28;;;;;;;24.67;34.39;93304.66;5078604;28;20194;-71
2022/07/14 09:27:34;;;;;;;7.47;6.95;;;;;;;24.33;35.32;93288.63;5077763;28;20218;-71
2022/07/14 09:30:00;;;;;;;6.45;6.07;;;;;;;24.83;33.64;93288.59;5080627;28;20222;-71
2022/07/14 09:32:50;;;;;;;6.75;6.32;;;;;;;24.98;33.97;93301.16;5063372;28;20220;-71
2022/07/14 09:35:20;;;;;;;6.25;5.95;;;;;;;25.00;34.79;93293.53;5081425;28;20196;-69
2022/07/14 09:37:48;;;;;;;6.85;6.45;;;;;;;24.86;35.64;93293.25;5079380;28;20220;-69
2022/07/14 09:40:22;;;;;;;7.03;6.72;;;;;;;25.12;33.86;93285.41;5078261;28;20199;-71
2022/07/14 09:42:51;;;;;;;7.05;6.75;;;;;;;25.26;33.11;93297.13;5079947;28;20230;-69
2022/07/14 09:45:20;;;;;;;6.85;6.50;;;;;;;25.11;34.28;93295.31;5078967;28;20218;-70
2022/07/14 09:47:51;;;;;;;6.57;6.18;;;;;;;25.06;33.98;93297.47;5078690;28;20248;-70
2022/07/14 09:50:37;;;;;;;7.78;7.13;;;;;;;25.19;33.54;93288.97;5078716;28;20189;-69
2022/07/14 09:53:10;;;;;;;7.15;6.75;;;;;;;25.11;34.67;93286.50;5078003;28;20902;-70
2022/07/14 09:55:36;;;;;;;7.72;7.32;;;;;;;25.19;33.34;93293.53;5077870;28;20645;-68
2022/07/14 09:58:05;;;;;;;6.63;6.30;;;;;;;25.30;32.16;93297.22;5080985;28;20189;-69
2022/07/14 10:00:31;;;;;;;7.47;7.07;;;;;;;25.31;33.35;93293.41;5092483;28;20210;-71
2022/07/14 10:02:58;;;;;;;7.97;7.25;;;;;;;25.26;33.93;93291.03;5079131;28;20225;-70
2022/07/14 10:05:26;;;;;;;7.35;6.75;;;;;;;25.40;32.36;93301.25;5078845;28;20192;-72
2022/07/14 10:07:53;;;;;;;11.85;7.47;;;;;;;25.05;33.61;93291.38;5077513;28;20211;-70
2022/07/14 10:10:19;;;;;;;7.32;7.00;;;;;;;24.90;33.91;93292.19;5079076;28;20200;-69
2022/07/14 10:12:45;;;;;;;8.95;6.93;;;;;;;25.29;33.15;93295.66;5078895;28;20302;-69
2022/07/14 10:15:13;;;;;;;6.28;5.97;;;;;;;25.14;31.61;93289.25;5077620;28;20247;-69
2022/07/14 10:17:40;;;;;;;7.70;7.10;;;;;;;24.81;32.16;93288.94;5080556;28;20955;-70
2022/07/14 10:20:08;;;;;;;7.10;6.70;;;;;;;24.24;33.40;93272.78;5080157;28;20191;-70
2022/07/14 10:22:35;;;;;;;7.25;6.72;;;;;;;24.29;34.55;93271.72;5079676;28;20229;-69
2022/07/14 10:25:03;;;;;;;7.50;7.10;;;;;;;24.25;33.89;93276.22;5076731;28;20192;-69
2022/07/14 10:27:29;;;;;;;7.43;6.95;;;;;;;24.49;35.27;93270.66;5078695;28;21170;-69
2022/07/14 10:29:59;;;;;;;7.80;7.40;;;;;;;24.58;35.41;93264.00;5078590;28;20190;-69
2022/07/14 10:32:34;;;;;;;8.27;7.55;;;;;;;24.22;33.78;93258.22;5077216;28;20236;-69
2022/07/14 10:34:59;;;;;;;8.55;6.30;;;;;;;24.69;35.22;93258.91;5080650;28;20195;-68
2022/07/14 10:37:46;;;;;;;8.57;7.90;;;;;;;25.05;36.58;93258.53;5078262;28;20227;-69
2022/07/14 10:40:36;;;;;;;7.00;6.70;;;;;;;25.44;33.51;93264.63;5077980;28;20197;-69
2022/07/14 10:43:57;;;;;;;7.93;7.32;;;;;;;25.15;32.94;93257.97;5061583;28;20227;-69
2022/07/14 10:46:38;;;;;;;6.68;6.35;;;;;;;25.38;34.69;93256.16;5010032;28;20237;-69
2022/07/14 10:49:06;;;;;;;9.65;7.78;;;;;;;25.60;34.31;93249.28;5059354;28;21029;-69
2022/07/14 10:51:32;;;;;;;7.55;7.15;;;;;;;25.77;33.59;93252.25;5047856;28;20236;-68
2022/07/14 10:54:13;;;;;;;8.20;7.68;;;;;;;25.24;32.93;93248.63;5076491;28;20207;-68
2022/07/14 10:56:41;;;;;;;9.30;6.95;;;;;;;25.49;33.56;93254.44;5077095;28;20235;-68
2022/07/14 10:59:24;;;;;;;7.15;6.75;;;;;;;25.51;34.24;93251.41;5080326;28;20574;-68
2022/07/14 11:02:15;;;;;;;7.10;6.75;;;;;;;25.65;33.17;93249.00;5077385;28;20244;-68
2022/07/14 11:07:52;;;;;;;7.05;6.72;;;;;;;25.03;33.26;93244.72;5077625;28;20292;-68
2022/07/14 11:10:18;;;;;;;7.07;6.63;;;;;;;25.48;32.49;93242.19;5077465;28;20203;-71
2022/07/14 11:13:05;;;;;;;7.10;6.45;;;;;;;25.63;31.53;93240.53;5076193;28;20293;-71
2022/07/14 11:16:02;;;;;;;7.32;6.93;;;;;;;25.47;32.42;93243.31;5079729;28;20195;-71
2022/07/14 11:18:35;;;;;;;7.43;6.93;;;;;;;25.44;33.64;93222.63;5078588;28;20246;-71
2022/07/14 11:21:07;;;;;;;7.82;7.32;;;;;;;25.89;32.68;93232.56;5078074;28;20231;-68
2022/07/14 11:23:46;;;;;;;6.80;6.50;;;;;;;25.93;33.18;93226.13;5078647;28;20215;-68
2022/07/14 11:26:41;;;;;;;7.47;7.07;;;;;;;25.96;32.11;93233.44;5076714;28;20220;-70
2022/07/14 11:29:11;;;;;;;7.50;6.90;;;;;;;25.81;32.14;93233.56;5074850;28;20212;-70
2022/07/14 11:31:46;;;;;;;8.30;7.47;;;;;;;25.72;32.84;93233.81;5077806;28;20229;-71
2022/07/14 11:37:08;;;;;;;8.13;7.35;;;;;;;25.33;32.25;93226.19;5075474;28;20217;-71
2022/07/14 11:39:37;;;;;;;7.63;6.93;;;;;;;25.15;35.13;93223.97;5078142;28;20209;-71
2022/07/14 11:42:09;;;;;;;7.97;7.22;;;;;;;25.34;32.39;93217.84;5072240;28;20243;-70
2022/07/14 11:44:43;;;;;;;8.25;7.63;;;;;;;25.14;32.31;93218.97;5077195;28;20195;-71
2022/07/14 11:47:18;;;;;;;8.07;7.55;;;;;;;24.98;33.22;93210.28;5075923;28;20240;-71
2022/07/14 11:49:52;;;;;;;7.65;7.22;;;;;;;25.33;32.79;93205.63;5073991;28;20199;-71
2022/07/14 11:52:24;;;;;;;8.25;7.82;;;;;;;25.18;33.67;93209.16;5053619;28;20216;-72
2022/07/14 11:54:54;;;;;;;7.63;7.22;;;;;;;25.45;33.12;93212.72;5074507;28;20262;-72
2022/07/14 11:57:21;;;;;;;8.32;7.63;;;;;;;25.95;32.48;93212.41;5074639;28;20208;-71